.
WxDataArchive / Data Records for 2015-05-13
2015-05-12 May 2015 2015-05-14

Data Records for Wednesday, 13 May 2015

Time	Temp	Chill	HIndex	Humid	Dewpt	 Wind 	HiWind	WindDir	Rain 	Barom
-----	----	-----	------	-----	-----	------	------	-------	-----	-----
00:00	50.7	50.7	50.7	74	42.7	0	0	---	0.00	30.222 
00:05	50.7	50.7	50.7	74	42.7	0	0	---	0.00	30.222 
00:10	50.7	50.7	50.7	74	42.7	0	0	---	0.00	30.222 
00:15	50.7	50.7	50.7	73	42.4	0	1	292	0.00	30.226 
00:20	50.7	50.7	50.7	73	42.4	0	1	292	0.00	30.226 
00:25	50.7	50.7	50.7	73	42.4	0	2	292	0.00	30.226 
00:30	50.7	50.7	50.7	73	42.4	0	3	292	0.00	30.228 
00:35	50.7	50.7	50.7	71	41.6	2	5	292	0.00	30.228 
00:40	50.7	50.7	50.7	70	41.3	1	4	338	0.00	30.228 
00:45	50.5	50.5	50.5	69	40.7	1	5	315	0.00	30.232 
00:50	50.5	50.5	50.5	69	40.7	1	4	315	0.00	30.232 
00:55	50.5	50.5	50.5	69	40.7	1	4	315	0.00	30.232 
01:00	50.5	50.5	50.5	69	40.7	1	4	338	0.00	30.234 
01:05	50.4	50.4	50.4	68	40.2	2	5	315	0.00	30.234 
01:10	50.4	50.4	50.4	68	40.2	1	4	315	0.00	30.234 
01:15	50.2	50.2	50.2	68	40.1	1	4	315	0.00	30.236 
01:20	50.2	50.2	50.2	68	40.1	1	3	315	0.00	30.236 
01:25	50.1	50.1	50.1	68	40.0	1	4	315	0.00	30.236 
01:30	50.1	50.1	50.1	68	40.0	1	4	315	0.00	30.236 
01:35	49.9	49.9	49.9	67	39.4	1	4	315	0.00	30.236 
01:40	49.9	49.9	49.9	67	39.4	1	4	315	0.00	30.236 
01:45	49.9	49.9	49.9	68	39.8	1	4	315	0.00	30.240 
01:50	49.9	49.9	49.9	69	40.1	1	3	270	0.00	30.240 
01:55	49.8	49.8	49.8	69	40.0	1	3	270	0.00	30.240 
02:00	49.6	49.6	49.6	68	39.5	1	4	270	0.00	30.241 
02:05	49.6	49.6	49.6	67	39.1	1	3	270	0.00	30.241 
02:10	49.5	49.5	49.5	65	38.2	1	4	270	0.00	30.241 
02:15	49.5	49.5	49.5	65	38.2	0	2	270	0.00	30.243 
02:20	49.5	49.5	49.5	66	38.6	0	1	270	0.00	30.243 
02:25	49.4	49.4	49.4	66	38.5	1	3	270	0.00	30.243 
02:30	49.4	49.4	49.4	65	38.1	0	3	292	0.00	30.251 
02:35	49.2	49.2	49.2	65	37.9	0	2	292	0.00	30.251 
02:40	49.2	49.2	49.2	65	37.9	0	2	292	0.00	30.251 
02:45	49.2	49.2	49.2	65	37.9	0	2	292	0.00	30.251 
02:50	49.1	49.1	49.1	65	37.8	0	1	292	0.00	30.251 
02:55	49.1	49.1	49.1	64	37.5	0	2	292	0.00	30.251 
03:00	49.1	49.1	49.1	64	37.5	0	3	292	0.00	30.253 
03:05	49.1	49.1	49.1	64	37.5	0	3	292	0.00	30.253 
03:10	48.9	48.9	48.9	64	37.3	0	1	292	0.00	30.253 
03:15	48.9	48.9	48.9	64	37.3	0	2	292	0.00	30.257 
03:20	48.9	48.9	48.9	64	37.3	0	2	292	0.00	30.257 
03:25	48.9	48.9	48.9	64	37.3	0	2	292	0.00	30.257 
03:30	48.9	48.9	48.9	65	37.7	0	1	292	0.00	30.259 
03:35	48.8	48.8	48.8	65	37.6	0	3	292	0.00	30.259 
03:40	48.8	48.8	48.8	65	37.6	0	3	292	0.00	30.259 
03:45	48.8	48.8	48.8	66	38.0	0	1	292	0.00	30.262 
03:50	48.6	48.6	48.6	66	37.8	0	1	292	0.00	30.262 
03:55	48.6	48.6	48.6	66	37.8	1	3	292	0.00	30.262 
04:00	48.6	48.6	48.6	66	37.8	0	3	292	0.00	30.270 
04:05	48.5	48.5	48.5	65	37.3	1	4	292	0.00	30.270 
04:10	48.5	48.5	48.5	65	37.3	1	4	315	0.00	30.270 
04:15	48.3	48.3	48.3	66	37.5	0	2	270	0.00	30.274 
04:20	48.2	48.2	48.2	66	37.4	0	3	270	0.00	30.274 
04:25	48.0	48.0	48.0	66	37.2	0	3	270	0.00	30.274 
04:30	47.9	47.9	47.9	66	37.1	1	2	270	0.00	30.275 
04:35	47.9	47.9	47.9	66	37.1	1	3	270	0.00	30.275 
04:40	47.7	47.7	47.7	66	36.9	1	3	270	0.00	30.275 
04:45	47.6	47.6	47.6	66	36.8	1	3	270	0.00	30.278 
04:50	47.4	47.4	47.4	67	37.0	0	1	270	0.00	30.278 
04:55	47.1	47.1	47.1	67	36.7	0	1	270	0.00	30.278 
05:00	47.0	47.0	47.0	67	36.6	0	2	270	0.00	30.286 
05:05	47.0	47.0	47.0	68	37.0	0	2	270	0.00	30.286 
05:10	46.7	46.7	46.7	68	36.7	0	1	270	0.00	30.286 
05:15	46.5	46.5	46.5	68	36.5	0	2	270	0.00	30.290 
05:20	46.4	46.4	46.4	69	36.8	0	2	270	0.00	30.290 
05:25	46.2	46.2	46.2	69	36.6	0	1	270	0.00	30.290 
05:30	46.1	46.1	46.1	69	36.5	0	1	270	0.00	30.295 
05:35	46.0	46.0	46.0	70	36.8	0	1	270	0.00	30.295 
05:40	45.8	45.8	45.8	71	36.9	0	1	270	0.00	30.295 
05:45	45.7	45.7	45.7	71	36.8	0	1	270	0.00	30.296 
05:50	45.4	45.4	45.4	72	36.9	0	1	270	0.00	30.296 
05:55	45.2	45.2	45.2	72	36.7	0	1	270	0.00	30.296 
06:00	45.1	45.1	45.1	73	37.0	0	1	270	0.00	30.305 
06:05	44.9	44.9	44.9	73	36.8	0	0	---	0.00	30.305 
06:10	44.8	44.8	44.8	74	37.0	0	1	270	0.00	30.305 
06:15	44.6	44.6	44.6	74	36.8	0	0	---	0.00	30.309 
06:20	44.5	44.5	44.5	75	37.1	0	1	270	0.00	30.309 
06:25	44.5	44.5	44.5	75	37.1	0	1	270	0.00	30.309 
06:30	44.5	44.5	44.5	75	37.1	0	1	270	0.00	30.322 
06:35	44.3	44.3	44.3	76	37.2	0	1	158	0.00	30.322 
06:40	44.2	44.2	44.2	76	37.1	0	0	---	0.00	30.322 
06:45	44.1	44.1	44.1	77	37.4	0	0	---	0.00	30.323 
06:50	44.1	44.1	44.1	77	37.4	0	1	158	0.00	30.323 
06:55	44.1	44.1	44.1	77	37.4	0	1	158	0.00	30.323 
07:00	44.1	44.1	44.1	77	37.4	0	1	158	0.00	30.326 
07:05	44.2	44.2	44.2	78	37.8	0	2	45	0.00	30.326 
07:10	44.5	44.5	44.5	78	38.1	0	1	45	0.00	30.326 
07:15	44.6	44.6	44.6	77	37.8	0	1	45	0.00	30.328 
07:20	44.9	44.9	44.9	77	38.1	0	1	45	0.00	30.328 
07:25	45.2	45.2	45.2	77	38.4	0	1	45	0.00	30.328 
07:30	45.5	45.5	45.5	77	38.7	0	2	45	0.00	30.340 
07:35	45.8	45.8	45.8	76	38.7	0	2	45	0.00	30.340 
07:40	46.2	46.2	46.2	76	39.1	0	2	338	0.00	30.340 
07:45	46.7	46.7	46.7	74	38.9	1	2	338	0.00	30.343 
07:50	47.0	47.0	47.0	73	38.8	1	4	338	0.00	30.343 
07:55	47.4	47.4	47.4	72	38.8	1	2	315	0.00	30.343 
08:00	47.9	47.9	47.9	72	39.3	1	3	315	0.00	30.344 
08:05	48.2	48.2	48.2	71	39.2	0	3	315	0.00	30.344 
08:10	48.5	48.5	48.5	70	39.2	1	4	315	0.00	30.344 
08:15	48.8	48.8	48.8	70	39.5	1	2	315	0.00	30.346 
08:20	48.9	48.9	48.9	69	39.2	1	4	315	0.00	30.346 
08:25	49.1	49.1	49.1	68	39.0	2	5	315	0.00	30.346 
08:30	49.4	49.4	49.4	68	39.3	1	5	315	0.00	30.354 
08:35	49.5	49.5	49.5	67	39.0	2	4	315	0.00	30.354 
08:40	49.8	49.8	49.8	66	38.9	1	5	338	0.00	30.354 
08:45	50.1	50.1	50.1	65	38.8	1	6	315	0.00	30.361 
08:50	50.1	50.1	50.1	64	38.4	1	4	315	0.00	30.361 
08:55	50.5	50.5	50.5	66	39.6	1	3	315	0.00	30.361 
09:00	51.0	51.0	51.0	66	40.0	1	4	315	0.00	30.365 
09:05	51.1	51.1	51.1	63	38.9	2	6	292	0.00	30.365 
09:10	51.3	51.3	51.3	63	39.1	1	4	315	0.00	30.365 
09:15	51.3	51.3	51.3	62	38.7	1	5	45	0.00	30.371 
09:20	51.1	51.1	51.1	62	38.5	2	5	315	0.00	30.371 
09:25	51.1	51.1	51.1	61	38.1	2	4	338	0.00	30.371 
09:30	51.0	51.0	51.0	59	37.2	3	7	315	0.00	30.378 
09:35	50.8	50.8	50.8	60	37.4	2	7	292	0.00	30.378 
09:40	50.7	50.7	50.7	59	36.9	2	7	292	0.00	30.378 
09:45	50.7	50.7	50.7	59	36.9	2	4	338	0.00	30.377 
09:50	50.7	50.7	50.7	60	37.3	2	6	338	0.00	30.377 
09:55	51.0	51.0	51.0	60	37.6	1	5	315	0.00	30.377 
10:00	51.3	51.3	51.3	61	38.3	2	5	315	0.00	30.380 
10:05	51.6	51.6	51.6	60	38.2	1	6	292	0.00	30.380 
10:10	52.0	52.0	52.0	61	39.0	1	4	270	0.00	30.380 
10:15	52.5	52.5	52.5	60	39.0	1	5	270	0.00	30.378 
10:20	52.3	52.3	52.3	58	38.0	2	4	315	0.00	30.378 
10:25	52.3	52.3	52.3	58	38.0	2	6	315	0.00	30.378 
10:30	52.8	52.8	52.8	61	39.7	1	4	315	0.00	30.379 
10:35	52.6	52.6	52.6	57	37.8	2	9	315	0.00	30.379 
10:40	52.8	52.8	52.8	55	37.1	2	6	22	0.00	30.379 
10:45	52.5	52.5	52.5	56	37.3	2	6	338	0.00	30.383 
10:50	52.6	52.6	52.6	57	37.8	2	6	338	0.00	30.383 
10:55	52.9	52.9	52.9	55	37.2	2	5	338	0.00	30.383 
11:00	53.3	53.3	53.3	53	36.6	2	7	338	0.00	30.382 
11:05	53.5	53.5	53.5	54	37.3	1	4	315	0.00	30.382 
11:10	53.8	53.8	53.8	53	37.1	1	5	45	0.00	30.382 
11:15	53.8	53.8	53.8	50	35.6	1	6	0	0.00	30.383 
11:20	53.6	53.6	53.6	50	35.4	2	5	292	0.00	30.383 
11:25	53.8	53.8	53.8	50	35.6	1	7	338	0.00	30.383 
11:30	54.1	54.1	54.1	52	36.9	1	5	0	0.00	30.381 
11:35	54.4	54.4	54.4	51	36.7	1	4	292	0.00	30.381 
11:40	54.7	54.7	54.7	52	37.4	1	3	338	0.00	30.381 
11:45	55.0	55.0	55.0	51	37.2	1	3	338	0.00	30.382 
11:50	55.3	55.3	55.3	50	37.0	1	3	338	0.00	30.382 
11:55	55.3	55.3	55.3	50	37.0	1	6	270	0.00	30.382 
12:00	55.1	55.1	55.1	50	36.8	1	4	292	0.00	30.385 
12:05	54.7	54.7	54.7	49	35.9	2	6	292	0.00	30.385 
12:10	55.1	55.1	55.1	52	37.8	2	4	112	0.00	30.385 
12:15	55.0	55.0	55.0	50	36.7	1	5	292	0.00	30.392 
12:20	55.3	55.3	55.3	52	38.0	1	4	292	0.00	30.392 
12:25	55.9	55.9	55.9	51	38.0	1	5	45	0.00	30.392 
12:30	56.0	56.0	56.0	50	37.6	1	3	45	0.00	30.395 
12:35	56.5	56.5	56.5	49	37.6	2	6	68	0.00	30.395 
12:40	56.6	56.6	56.6	51	38.7	1	4	315	0.00	30.395 
12:45	57.0	57.0	57.0	52	39.5	1	4	90	0.00	30.397 
12:50	56.6	56.6	56.6	50	38.2	1	4	338	0.00	30.397 
12:55	56.7	56.7	56.7	49	37.8	1	4	22	0.00	30.397 
13:00	56.9	56.9	56.9	51	39.0	1	4	292	0.00	30.394 
13:05	57.2	57.2	57.2	54	40.7	0	3	292	0.00	30.394 
13:10	57.3	57.3	57.3	49	38.3	1	5	292	0.00	30.394 
13:15	57.2	57.2	57.2	48	37.7	1	3	292	0.00	30.394 
13:20	57.2	57.2	57.2	52	39.7	1	3	292	0.00	30.394 
13:25	56.9	56.9	56.9	48	37.4	1	5	338	0.00	30.394 
13:30	57.2	57.2	57.2	51	39.2	1	4	338	0.00	30.390 
13:35	57.5	57.5	57.5	49	38.5	1	3	338	0.00	30.390 
13:40	57.8	57.8	57.8	52	40.3	1	3	22	0.00	30.390 
13:45	58.1	58.1	58.1	49	39.0	1	3	22	0.00	30.380 
13:50	58.4	58.4	58.4	50	39.8	1	4	112	0.00	30.380 
13:55	58.6	58.6	58.6	49	39.5	1	4	90	0.00	30.380 
14:00	58.6	58.6	58.6	51	40.5	1	5	90	0.00	30.370 
14:05	58.9	58.9	58.9	50	40.3	1	3	90	0.00	30.370 
14:10	59.5	59.5	59.5	52	41.9	1	6	90	0.00	30.370 
14:15	59.6	59.6	59.6	50	40.9	1	3	90	0.00	30.374 
14:20	59.8	59.8	59.8	51	41.6	1	5	90	0.00	30.374 
14:25	59.5	59.5	59.5	49	40.3	1	5	90	0.00	30.374 
14:30	59.8	59.8	59.8	49	40.6	1	4	90	0.00	30.367 
14:35	59.3	59.3	59.3	49	40.1	1	3	315	0.00	30.367 
14:40	59.5	59.5	59.5	52	41.9	2	6	112	0.00	30.367 
14:45	59.5	59.5	59.5	47	39.3	1	7	90	0.00	30.363 
14:50	59.3	59.3	59.3	51	41.2	0	3	90	0.00	30.363 
14:55	59.8	59.8	59.8	48	40.1	1	5	112	0.00	30.363 
15:00	59.9	59.9	59.9	50	41.2	1	3	112	0.00	30.362 
15:05	59.9	59.9	59.9	48	40.2	0	3	112	0.00	30.362 
15:10	59.8	59.8	59.8	49	40.6	1	4	0	0.00	30.362 
15:15	59.8	59.8	59.8	53	42.6	1	5	135	0.00	30.365 
15:20	60.1	60.1	60.1	50	41.4	1	4	112	0.00	30.365 
15:25	59.9	59.9	59.9	47	39.6	1	5	112	0.00	30.365 
15:30	60.1	60.1	60.1	48	40.3	1	4	225	0.00	30.360 
15:35	60.1	60.1	60.1	48	40.3	2	5	292	0.00	30.360 
15:40	60.1	60.1	60.1	48	40.3	2	6	90	0.00	30.360 
15:45	60.4	60.4	60.4	49	41.1	1	4	90	0.00	30.361 
15:50	60.5	60.5	60.5	49	41.2	1	5	112	0.00	30.361 
15:55	60.7	60.7	60.7	47	40.3	1	5	112	0.00	30.361 
16:00	60.9	60.9	60.9	47	40.5	1	4	0	0.00	30.358 
16:05	61.0	61.0	61.0	49	41.7	1	3	0	0.00	30.358 
16:10	61.0	61.0	61.0	46	40.1	1	4	112	0.00	30.358 
16:15	60.9	60.9	60.9	46	40.0	1	4	112	0.00	30.346 
16:20	61.0	61.0	61.0	49	41.7	1	3	90	0.00	30.346 
16:25	61.0	61.0	61.0	48	41.2	1	3	90	0.00	30.346 
16:30	60.9	60.9	60.9	50	42.1	2	5	90	0.00	30.344 
16:35	60.7	60.7	60.7	50	41.9	2	5	90	0.00	30.344 
16:40	60.4	60.4	60.4	50	41.7	1	5	90	0.00	30.344 
16:45	60.4	60.4	60.4	51	42.2	1	3	90	0.00	30.347 
16:50	60.9	60.9	60.9	48	41.1	0	2	90	0.00	30.347 
16:55	61.2	61.2	61.2	46	40.3	1	3	90	0.00	30.347 
17:00	61.3	61.3	61.3	48	41.4	1	4	90	0.00	30.346 
17:05	61.3	61.3	61.3	48	41.4	1	5	112	0.00	30.346 
17:10	61.5	61.5	61.5	52	43.7	1	4	112	0.00	30.346 
17:15	61.5	61.5	61.5	47	41.1	1	4	112	0.00	30.349 
17:20	61.0	61.0	61.0	49	41.7	1	4	112	0.00	30.349 
17:25	60.7	60.7	60.7	50	41.9	1	5	112	0.00	30.349 
17:30	60.5	60.5	60.5	49	41.2	1	5	112	0.00	30.352 
17:35	60.1	60.1	60.1	51	41.9	1	3	112	0.00	30.352 
17:40	59.8	59.8	59.8	51	41.6	0	2	112	0.00	30.352 
17:45	59.6	59.6	59.6	52	42.0	0	2	112	0.00	30.351 
17:50	59.9	59.9	59.9	53	42.7	1	3	112	0.00	30.351 
17:55	60.1	60.1	60.1	50	41.4	1	4	112	0.00	30.351 
18:00	60.2	60.2	60.2	51	42.0	1	4	112	0.00	30.350 
18:05	60.4	60.4	60.4	50	41.7	2	4	112	0.00	30.350 
18:10	60.5	60.5	60.5	50	41.8	1	3	112	0.00	30.350 
18:15	60.4	60.4	60.4	50	41.7	1	5	112	0.00	30.351 
18:20	60.1	60.1	60.1	50	41.4	2	5	112	0.00	30.351 
18:25	59.9	59.9	59.9	50	41.2	0	2	112	0.00	30.351 
18:30	59.8	59.8	59.8	50	41.1	0	3	112	0.00	30.354 
18:35	59.6	59.6	59.6	50	40.9	0	1	112	0.00	30.354 
18:40	59.6	59.6	59.6	52	42.0	0	2	112	0.00	30.354 
18:45	59.8	59.8	59.8	52	42.1	1	3	112	0.00	30.357 
18:50	59.8	59.8	59.8	51	41.6	1	3	112	0.00	30.357 
18:55	59.6	59.6	59.6	50	40.9	2	6	112	0.00	30.357 
19:00	59.5	59.5	59.5	52	41.9	1	4	112	0.00	30.354 
19:05	59.3	59.3	59.3	53	42.2	1	3	112	0.00	30.354 
19:10	59.3	59.3	59.3	52	41.7	1	5	112	0.00	30.354 
19:15	59.2	59.2	59.2	53	42.1	1	3	112	0.00	30.349 
19:20	59.0	59.0	59.0	54	42.4	1	3	112	0.00	30.349 
19:25	58.7	58.7	58.7	53	41.6	2	5	112	0.00	30.349 
19:30	58.6	58.6	58.6	54	42.0	1	4	112	0.00	30.349 
19:35	58.4	58.4	58.4	53	41.3	2	6	112	0.00	30.349 
19:40	58.4	58.4	58.4	53	41.3	1	4	112	0.00	30.349 
19:45	58.3	58.3	58.3	54	41.7	1	4	112	0.00	30.356 
19:50	58.0	58.0	58.0	55	41.9	1	3	112	0.00	30.356 
19:55	57.8	57.8	57.8	55	41.7	2	5	112	0.00	30.356 
20:00	57.5	57.5	57.5	55	41.5	2	5	112	0.00	30.359 
20:05	57.2	57.2	57.2	56	41.6	2	6	112	0.00	30.359 
20:10	57.0	57.0	57.0	56	41.5	1	5	112	0.00	30.359 
20:15	56.9	56.9	56.9	56	41.4	1	4	45	0.00	30.358 
20:20	56.6	56.6	56.6	57	41.5	0	2	90	0.00	30.358 
20:25	56.5	56.5	56.5	58	41.9	1	4	90	0.00	30.358 
20:30	56.3	56.3	56.3	59	42.2	1	3	90	0.00	30.362 
20:35	56.0	56.0	56.0	59	41.9	1	3	90	0.00	30.362 
20:40	55.7	55.7	55.7	60	42.0	1	3	90	0.00	30.362 
20:45	55.4	55.4	55.4	61	42.2	1	3	90	0.00	30.364 
20:50	55.1	55.1	55.1	61	41.9	1	3	90	0.00	30.364 
20:55	54.8	54.8	54.8	62	42.0	1	3	90	0.00	30.364 
21:00	54.5	54.5	54.5	63	42.2	1	5	90	0.00	30.365 
21:05	54.2	54.2	54.2	64	42.3	1	3	22	0.00	30.365 
21:10	53.9	53.9	53.9	64	42.0	2	4	68	0.00	30.365 
21:15	53.8	53.8	53.8	65	42.3	1	3	68	0.00	30.372 
21:20	53.5	53.5	53.5	65	42.0	1	4	68	0.00	30.372 
21:25	53.2	53.2	53.2	66	42.1	1	3	68	0.00	30.372 
21:30	52.9	52.9	52.9	66	41.9	1	3	68	0.00	30.379 
21:35	52.8	52.8	52.8	67	42.1	1	3	68	0.00	30.379 
21:40	52.6	52.6	52.6	67	42.0	1	5	68	0.00	30.379 
21:45	52.5	52.5	52.5	68	42.2	0	2	68	0.00	30.386 
21:50	52.2	52.2	52.2	68	42.0	0	2	68	0.00	30.386 
21:55	52.0	52.0	52.0	69	42.1	0	4	68	0.00	30.386 
22:00	51.9	51.9	51.9	69	42.1	0	2	68	0.00	30.397 
22:05	51.7	51.7	51.7	69	41.9	0	2	68	0.00	30.397 
22:10	51.6	51.6	51.6	70	42.1	0	2	68	0.00	30.397 
22:15	51.4	51.4	51.4	71	42.3	0	1	68	0.00	30.405 
22:20	51.3	51.3	51.3	71	42.2	0	1	68	0.00	30.405 
22:25	51.1	51.1	51.1	72	42.4	0	0	---	0.00	30.405 
22:30	51.0	51.0	51.0	73	42.7	0	1	68	0.00	30.411 
22:35	50.7	50.7	50.7	73	42.4	0	0	---	0.00	30.411 
22:40	50.5	50.5	50.5	73	42.2	0	0	---	0.00	30.411 
22:45	50.4	50.4	50.4	73	42.1	0	1	68	0.00	30.416 
22:50	50.2	50.2	50.2	73	41.9	0	0	---	0.00	30.416 
22:55	50.1	50.1	50.1	74	42.1	0	1	68	0.00	30.416 
23:00	49.9	49.9	49.9	74	41.9	0	1	68	0.00	30.421 
23:05	49.8	49.8	49.8	74	41.9	0	2	68	0.00	30.421 
23:10	49.6	49.6	49.6	74	41.7	0	2	68	0.00	30.421 
23:15	49.6	49.6	49.6	74	41.7	0	2	68	0.00	30.426 
23:20	49.5	49.5	49.5	74	41.6	0	3	68	0.00	30.426 
23:25	49.4	49.4	49.4	74	41.5	0	1	68	0.00	30.426 
23:30	49.4	49.4	49.4	75	41.8	0	2	68	0.00	30.426 
23:35	49.2	49.2	49.2	75	41.6	1	4	68	0.00	30.426 
23:40	49.2	49.2	49.2	75	41.6	1	3	68	0.00	30.426 
23:45	49.2	49.2	49.2	75	41.6	0	3	68	0.00	30.420 
23:50	49.1	49.1	49.1	74	41.2	1	5	68	0.00	30.420 
23:55	49.1	49.1	49.1	74	41.2	1	3	68	0.00	30.420 

CoCoRaHS
IN-AL-39
A2 Web Hosting
Creative Commons License
GoDaddy
search engine by freefind advanced

loaded 2018-11-20 03:11:37 • last modified 2010-11-18 10:43:29
Privacy PolicyDisclaimer
• wx.awcolley.com is powered by PmWiki v.2002016 •
• all content (unless otherwise noted) © 2018 A W Colley